Time;durP1;ratioP1;P1;durP2;ratioP2;P2;SDS_P1;SDS_P2;PMS_P1;PMS_P2;Temp;Humidity;BMP_temperature;BMP_pressure;BME280_temperature;BME280_humidity;BME280_pressure;Samples;Min_cycle;Max_cycle;Signal;HPM_P1;HPM_P2
2024/03/04 00:00:55;;;;;;;;;;;;;;;20.27;34.12;100704.81;4264631;27;20355;-57
2024/03/04 00:02:57;;;;;;;;;;;;;;;20.26;34.16;100703.94;4264582;27;19930;-58
2024/03/04 00:04:59;;;;;;;;;;;;;;;20.27;33.93;100715.50;4264319;27;20381;-58
2024/03/04 00:07:01;;;;;;;;;;;;;;;20.26;33.75;100719.13;4264436;27;19919;-58
2024/03/04 00:09:04;;;;;;;;;;;;;;;20.27;33.64;100719.00;4264658;27;20027;-58
2024/03/04 00:11:07;;;;;;;;;;;;;;;20.27;33.74;100721.69;4265392;27;20298;-58
2024/03/04 00:13:09;;;;;;;;;;;;;;;20.26;33.96;100724.47;4267461;27;19971;-58
2024/03/04 00:15:10;;;;;;;;;;;;;;;20.26;34.09;100722.66;4267907;27;20005;-58
2024/03/04 00:17:12;;;;;;;;;;;;;;;20.27;34.18;100726.19;4267910;27;20374;-58
2024/03/04 00:19:18;;;;;;;;;;;;;;;20.27;33.99;100726.19;4267555;27;20020;-58
2024/03/04 00:21:20;;;;;;;;;;;;;;;20.26;33.88;100728.00;4267761;27;20013;-58
2024/03/04 00:23:21;;;;;;;;;;;;;;;20.26;33.93;100729.81;4267917;27;19918;-58
2024/03/04 00:25:23;;;;;;;;;;;;;;;20.25;33.88;100723.59;4267622;27;20381;-59
2024/03/04 00:27:26;;;;;;;;;;;;;;;20.26;34.01;100736.00;4267385;27;19926;-58
2024/03/04 00:29:28;;;;;;;;;;;;;;;20.25;33.97;100733.44;4267642;27;19969;-58
2024/03/04 00:31:33;;;;;;;;;;;;;;;20.26;33.91;100727.16;4267683;27;19918;-57
2024/03/04 00:33:34;;;;;;;;;;;;;;;20.27;33.89;100736.88;4267274;27;19919;-57
2024/03/04 00:35:36;;;;;;;;;;;;;;;20.22;33.64;100739.88;4267661;27;19967;-58
2024/03/04 00:37:38;;;;;;;;;;;;;;;20.23;33.91;100735.38;4267217;27;19922;-57
2024/03/04 00:39:41;;;;;;;;;;;;;;;20.26;33.55;100746.69;4267552;27;19919;-57
2024/03/04 00:41:43;;;;;;;;;;;;;;;20.25;33.59;100749.47;4267317;27;20309;-57
2024/03/04 00:43:44;;;;;;;;;;;;;;;20.25;34.00;100752.16;4267552;27;19997;-59
2024/03/04 00:45:46;;;;;;;;;;;;;;;20.24;33.92;100756.66;4267262;27;19919;-58
2024/03/04 00:47:47;;;;;;;;;;;;;;;20.22;33.80;100757.72;4266945;27;19923;-58
2024/03/04 00:49:49;;;;;;;;;;;;;;;20.20;33.74;100765.84;4267086;27;19919;-58
2024/03/04 00:51:51;;;;;;;;;;;;;;;20.24;33.73;100766.47;4266904;27;19919;-57
2024/03/04 00:53:52;;;;;;;;;;;;;;;20.23;33.66;100762.97;4266968;27;20398;-57
2024/03/04 00:55:54;;;;;;;;;;;;;;;20.23;34.00;100765.63;4267025;27;19919;-58
2024/03/04 00:57:55;;;;;;;;;;;;;;;20.22;33.73;100760.38;4266829;27;19922;-57
2024/03/04 00:59:57;;;;;;;;;;;;;;;20.22;33.70;100765.72;4267440;27;19919;-56
2024/03/04 01:01:58;;;;;;;;;;;;;;;20.20;33.97;100763.19;4266598;27;19919;-56
2024/03/04 01:04:00;;;;;;;;;;;;;;;20.19;33.80;100757.97;4266867;27;19923;-57
2024/03/04 01:06:02;;;;;;;;;;;;;;;20.19;33.64;100766.81;4266856;27;19926;-57
2024/03/04 01:08:04;;;;;;;;;;;;;;;20.19;33.61;100761.47;4266941;27;19919;-57
2024/03/04 01:10:06;;;;;;;;;;;;;;;20.21;33.99;100764.88;4266903;27;19926;-56
2024/03/04 01:12:08;;;;;;;;;;;;;;;20.21;33.95;100762.22;4266883;27;20014;-57
2024/03/04 01:14:09;;;;;;;;;;;;;;;20.18;33.67;100759.75;4266869;27;20026;-57
2024/03/04 01:16:11;;;;;;;;;;;;;;;20.20;33.68;100760.50;4266599;27;19919;-59
2024/03/04 01:18:13;;;;;;;;;;;;;;;20.20;33.65;100760.50;4266618;27;19925;-58
2024/03/04 01:20:16;;;;;;;;;;;;;;;20.20;33.85;100760.50;4266756;27;19919;-58
2024/03/04 01:22:17;;;;;;;;;;;;;;;20.17;33.61;100766.09;4266737;27;20428;-58
2024/03/04 01:24:19;;;;;;;;;;;;;;;20.18;33.75;100765.09;4266167;27;20414;-56
2024/03/04 01:26:23;;;;;;;;;;;;;;;20.16;33.62;100761.72;4266843;27;20444;-57
2024/03/04 01:28:24;;;;;;;;;;;;;;;20.18;33.63;100759.75;4266434;27;19919;-58
2024/03/04 01:30:26;;;;;;;;;;;;;;;20.17;33.54;100760.75;4266301;27;19919;-58
2024/03/04 01:32:28;;;;;;;;;;;;;;;20.19;33.74;100760.63;4266564;27;19929;-58
2024/03/04 01:34:30;;;;;;;;;;;;;;;20.18;33.94;100764.25;4266421;27;19919;-58
2024/03/04 01:36:31;;;;;;;;;;;;;;;20.16;33.60;100769.72;4266613;27;19942;-58
2024/03/04 01:38:33;;;;;;;;;;;;;;;20.16;33.76;100761.72;4266784;27;19918;-58
2024/03/04 01:40:35;;;;;;;;;;;;;;;20.16;33.59;100755.50;4266609;27;19930;-57
2024/03/04 01:42:37;;;;;;;;;;;;;;;20.17;33.62;100754.53;4266443;27;19918;-58
2024/03/04 01:44:39;;;;;;;;;;;;;;;20.17;33.61;100757.22;4266174;27;19919;-58
2024/03/04 01:46:42;;;;;;;;;;;;;;;20.13;33.86;100751.25;4265876;27;20389;-58
2024/03/04 01:48:43;;;;;;;;;;;;;;;20.13;33.71;100750.41;4266156;27;19977;-59
2024/03/04 01:50:45;;;;;;;;;;;;;;;20.12;33.46;100757.56;4248009;27;20381;-59
2024/03/04 01:52:50;;;;;;;;;;;;;;;20.11;33.76;100753.22;4266427;27;20309;-58
2024/03/04 01:54:57;;;;;;;;;;;;;;;20.15;33.51;100751.16;4266247;27;20018;-58
2024/03/04 01:56:58;;;;;;;;;;;;;;;20.14;33.47;100747.63;4266220;27;20401;-57
2024/03/04 01:59:00;;;;;;;;;;;;;;;20.15;33.79;100737.81;4266143;27;19929;-56
2024/03/04 02:01:05;;;;;;;;;;;;;;;20.14;33.82;100728.09;4247211;27;20023;-55
2024/03/04 02:03:07;;;;;;;;;;;;;;;20.13;33.80;100724.56;4265865;27;19980;-58
2024/03/04 02:05:09;;;;;;;;;;;;;;;20.14;33.56;100723.59;4266064;27;20297;-61
2024/03/04 02:07:13;;;;;;;;;;;;;;;20.11;33.76;100724.69;4266082;27;19960;-58
2024/03/04 02:09:17;;;;;;;;;;;;;;;20.11;33.64;100730.00;4265720;27;19951;-58
2024/03/04 02:11:19;;;;;;;;;;;;;;;20.11;33.56;100731.84;4266003;27;19919;-58
2024/03/04 02:13:21;;;;;;;;;;;;;;;20.08;33.76;100732.06;4265851;27;19964;-57
2024/03/04 02:15:23;;;;;;;;;;;;;;;20.08;33.65;100724.91;4265464;27;19919;-57
2024/03/04 02:17:25;;;;;;;;;;;;;;;20.08;33.66;100721.38;4265656;27;20089;-57
2024/03/04 02:19:26;;;;;;;;;;;;;;;20.08;33.63;100716.88;4265851;27;19919;-57
2024/03/04 02:21:30;;;;;;;;;;;;;;;20.08;33.73;100722.22;4265775;27;19930;-56
2024/03/04 02:23:32;;;;;;;;;;;;;;;20.07;33.48;100725.03;4265520;27;19919;-59
2024/03/04 02:25:37;;;;;;;;;;;;;;;20.11;33.72;100729.19;4265582;27;20301;-57
2024/03/04 02:27:39;;;;;;;;;;;;;;;20.12;33.49;100722.84;4265496;27;19919;-57
2024/03/04 02:29:41;;;;;;;;;;;;;;;20.14;33.62;100726.25;4265263;27;19995;-57
2024/03/04 02:31:43;;;;;;;;;;;;;;;20.10;33.42;100717.63;4265641;27;20002;-56
2024/03/04 02:33:45;;;;;;;;;;;;;;;20.09;33.47;100728.44;4265507;27;19918;-57
2024/03/04 02:35:48;;;;;;;;;;;;;;;20.07;33.61;100722.34;4264737;27;19977;-57
2024/03/04 02:37:49;;;;;;;;;;;;;;;20.08;33.40;100729.41;4265380;27;20407;-57
2024/03/04 02:39:55;;;;;;;;;;;;;;;20.07;33.65;100733.03;4265344;27;19925;-57
2024/03/04 02:41:56;;;;;;;;;;;;;;;20.07;33.50;100736.56;4265334;27;20323;-57
2024/03/04 02:43:58;;;;;;;;;;;;;;;20.08;33.67;100738.25;4265100;27;19985;-57
2024/03/04 02:45:59;;;;;;;;;;;;;;;20.05;33.64;100751.84;4265488;27;19923;-57
2024/03/04 02:48:01;;;;;;;;;;;;;;;20.05;33.48;100749.16;4265562;27;20305;-57
2024/03/04 02:50:03;;;;;;;;;;;;;;;20.07;33.35;100743.72;4265343;27;19923;-57
2024/03/04 02:52:05;;;;;;;;;;;;;;;20.08;33.44;100750.75;4265304;27;19947;-57
2024/03/04 02:54:06;;;;;;;;;;;;;;;20.09;33.49;100750.63;4265235;27;19919;-58
2024/03/04 02:56:08;;;;;;;;;;;;;;;20.05;33.38;100754.50;4265303;27;19930;-57
2024/03/04 02:58:09;;;;;;;;;;;;;;;20.05;33.26;100756.31;4264652;27;20050;-57
2024/03/04 03:00:11;;;;;;;;;;;;;;;20.04;33.17;100757.31;4265265;27;20342;-57
2024/03/04 03:02:13;;;;;;;;;;;;;;;20.03;33.31;100760.94;4264914;27;19979;-57
2024/03/04 03:04:15;;;;;;;;;;;;;;;20.00;33.69;100762.03;4265356;27;19919;-57
2024/03/04 03:06:16;;;;;;;;;;;;;;;20.03;33.60;100768.94;4265227;27;20009;-57
2024/03/04 03:08:18;;;;;;;;;;;;;;;20.05;33.64;100769.66;4265098;27;19919;-57
2024/03/04 03:10:20;;;;;;;;;;;;;;;20.04;33.52;100773.31;4265204;27;19958;-57
2024/03/04 03:12:21;;;;;;;;;;;;;;;20.04;33.46;100774.16;4264820;27;20400;-57
2024/03/04 03:14:24;;;;;;;;;;;;;;;20.02;33.26;100770.75;4265027;27;19950;-58
2024/03/04 03:16:25;;;;;;;;;;;;;;;20.06;33.60;100772.25;4265193;27;20300;-57
2024/03/04 03:18:27;;;;;;;;;;;;;;;20.04;33.36;100767.97;4265019;27;19919;-57
2024/03/04 03:20:28;;;;;;;;;;;;;;;20.02;33.50;100775.25;4265327;27;20393;-57
2024/03/04 03:22:30;;;;;;;;;;;;;;;20.02;33.56;100776.09;4265170;27;20295;-57
2024/03/04 03:24:31;;;;;;;;;;;;;;;20.01;33.22;100777.03;4265096;27;19926;-57
2024/03/04 03:26:33;;;;;;;;;;;;;;;20.00;33.25;100782.50;4264454;27;19919;-56
2024/03/04 03:28:36;;;;;;;;;;;;;;;20.01;33.53;100785.06;4264880;27;19919;-57
2024/03/04 03:30:38;;;;;;;;;;;;;;;20.02;33.68;100780.59;4264876;27;20010;-55
2024/03/04 03:32:40;;;;;;;;;;;;;;;20.00;33.34;100777.16;4264764;27;19919;-56
2024/03/04 03:34:42;;;;;;;;;;;;;;;20.00;33.49;100775.38;4264899;27;20289;-57
2024/03/04 03:36:44;;;;;;;;;;;;;;;20.03;33.54;100779.63;4265261;27;20157;-57
2024/03/04 03:38:46;;;;;;;;;;;;;;;20.03;33.43;100771.63;4264876;27;20338;-57
2024/03/04 03:40:48;;;;;;;;;;;;;;;20.03;33.08;100777.78;4264687;27;20055;-57
2024/03/04 03:42:50;;;;;;;;;;;;;;;20.02;33.35;100777.91;4246519;28;20377;-57
2024/03/04 03:44:51;;;;;;;;;;;;;;;20.00;33.55;100777.16;4264906;27;20266;-57
2024/03/04 03:46:53;;;;;;;;;;;;;;;19.99;33.13;100786.13;4248676;27;20397;-57
2024/03/04 03:48:55;;;;;;;;;;;;;;;19.98;33.24;100787.97;4268333;27;19919;-57
2024/03/04 03:50:57;;;;;;;;;;;;;;;19.97;33.29;100782.75;4268150;27;20231;-57
2024/03/04 03:52:58;;;;;;;;;;;;;;;19.95;33.14;100786.38;4268077;27;19930;-58
2024/03/04 03:55:00;;;;;;;;;;;;;;;19.97;33.25;100790.75;4268100;27;19919;-57
2024/03/04 03:57:01;;;;;;;;;;;;;;;19.99;33.49;100780.81;4267888;27;19926;-57
2024/03/04 03:59:03;;;;;;;;;;;;;;;19.98;33.42;100777.28;4249854;27;20386;-57
2024/03/04 04:01:04;;;;;;;;;;;;;;;20.00;33.06;100783.38;4267917;27;19919;-57
2024/03/04 04:03:06;;;;;;;;;;;;;;;20.00;33.30;100779.84;4267742;27;19925;-56
2024/03/04 04:05:08;;;;;;;;;;;;;;;20.02;33.12;100780.59;4268018;27;19919;-57
2024/03/04 04:07:09;;;;;;;;;;;;;;;19.98;33.22;100774.63;4267860;27;19981;-57
2024/03/04 04:09:11;;;;;;;;;;;;;;;19.98;33.33;100779.09;4267897;27;19927;-57
2024/03/04 04:11:12;;;;;;;;;;;;;;;20.00;33.29;100778.03;4267375;27;19919;-57
2024/03/04 04:13:14;;;;;;;;;;;;;;;19.98;33.06;100779.97;4267849;27;19919;-57
2024/03/04 04:15:15;;;;;;;;;;;;;;;19.97;33.39;100786.25;4267548;27;19919;-57
2024/03/04 04:17:17;;;;;;;;;;;;;;;19.95;33.46;100788.19;4267873;27;19987;-57
2024/03/04 04:19:18;;;;;;;;;;;;;;;19.96;33.45;100784.56;4267898;27;19985;-57
2024/03/04 04:21:20;;;;;;;;;;;;;;;19.96;33.38;100776.53;4267649;27;20297;-57
2024/03/04 04:23:22;;;;;;;;;;;;;;;19.95;33.27;100782.84;4267877;27;19918;-57
2024/03/04 04:25:24;;;;;;;;;;;;;;;19.95;33.46;100790.84;4267518;27;19941;-57
2024/03/04 04:27:26;;;;;;;;;;;;;;;19.97;33.33;100790.75;4267698;27;19919;-56
2024/03/04 04:29:27;;;;;;;;;;;;;;;19.97;33.44;100796.09;4267655;27;20304;-57
2024/03/04 04:31:29;;;;;;;;;;;;;;;19.94;33.53;100795.34;4267602;27;19985;-56
2024/03/04 04:33:30;;;;;;;;;;;;;;;19.94;33.17;100802.53;4267424;27;19972;-57
2024/03/04 04:35:32;;;;;;;;;;;;;;;19.91;33.12;100808.91;4267509;27;20029;-57
2024/03/04 04:37:34;;;;;;;;;;;;;;;19.91;33.31;100814.25;4267692;27;19950;-57
2024/03/04 04:39:39;;;;;;;;;;;;;;;19.94;33.05;100821.22;4267102;27;20408;-57
2024/03/04 04:41:40;;;;;;;;;;;;;;;19.94;33.44;100818.53;4267407;27;19971;-57
2024/03/04 04:43:42;;;;;;;;;;;;;;;19.93;33.40;100815.00;4267186;27;19923;-57
2024/03/04 04:45:44;;;;;;;;;;;;;;;19.91;33.46;100816.91;4267334;27;20000;-57
2024/03/04 04:47:45;;;;;;;;;;;;;;;19.93;33.04;100819.50;4267201;27;19923;-58
2024/03/04 04:49:47;;;;;;;;;;;;;;;19.94;33.21;100819.38;4267413;27;19948;-57
2024/03/04 04:51:48;;;;;;;;;;;;;;;19.92;33.26;100821.28;4248928;27;19926;-57
2024/03/04 04:53:50;;;;;;;;;;;;;;;19.92;33.47;100831.13;4267011;27;19930;-57
2024/03/04 04:55:51;;;;;;;;;;;;;;;19.90;33.41;100825.06;4266934;27;20331;-57
2024/03/04 04:57:53;;;;;;;;;;;;;;;19.89;33.48;100826.00;4266269;27;19918;-57
2024/03/04 04:59:54;;;;;;;;;;;;;;;19.87;33.39;100834.13;4267264;27;20308;-56
2024/03/04 05:01:56;;;;;;;;;;;;;;;19.88;33.20;100835.84;4266973;27;19923;-57
2024/03/04 05:03:58;;;;;;;;;;;;;;;19.88;33.59;100837.66;4266969;27;19919;-57
2024/03/04 05:06:20;;;;;;;;;;;;;;;19.88;33.35;100838.50;4266943;27;20392;-57
2024/03/04 05:08:22;;;;;;;;;;;;;;;19.88;33.47;100834.97;4266785;27;19919;-57
2024/03/04 05:10:23;;;;;;;;;;;;;;;19.85;33.34;100841.41;4266729;27;20235;-57
2024/03/04 05:12:25;;;;;;;;;;;;;;;19.86;33.31;100850.28;4266773;27;19939;-57
2024/03/04 05:14:26;;;;;;;;;;;;;;;19.88;33.32;100856.31;4248439;27;19919;-57
2024/03/04 05:16:29;;;;;;;;;;;;;;;19.87;33.39;100851.97;4267028;27;19919;-57
2024/03/04 05:18:30;;;;;;;;;;;;;;;19.84;33.30;100850.34;4248752;27;20309;-57
2024/03/04 05:20:32;;;;;;;;;;;;;;;19.83;33.11;100850.44;4266695;27;20389;-57
2024/03/04 05:22:54;;;;;;;;;;;;;;;19.82;33.26;100846.94;4266299;27;20122;-57
2024/03/04 05:24:56;;;;;;;;;;;;;;;19.80;33.33;100846.19;4266762;27;19918;-56
2024/03/04 05:26:57;;;;;;;;;;;;;;;19.83;33.54;100851.31;4266540;27;19967;-57
2024/03/04 05:29:00;;;;;;;;;;;;;;;19.83;33.17;100850.44;4266576;27;19919;-57
2024/03/04 05:31:01;;;;;;;;;;;;;;;19.83;33.09;100850.44;4266586;27;20348;-57
2024/03/04 05:33:03;;;;;;;;;;;;;;;19.82;33.42;100854.06;4266483;27;20408;-57
2024/03/04 05:35:07;;;;;;;;;;;;;;;19.81;33.50;100850.56;4266476;27;19948;-57
2024/03/04 05:37:09;;;;;;;;;;;;;;;19.81;33.07;100853.25;4265975;27;19961;-57
2024/03/04 05:39:10;;;;;;;;;;;;;;;19.80;33.01;100852.38;4266332;27;19919;-57
2024/03/04 05:41:12;;;;;;;;;;;;;;;19.79;33.12;100841.81;4266371;27;20010;-57
2024/03/04 05:43:13;;;;;;;;;;;;;;;19.77;33.32;100844.59;4266427;27;19919;-57
2024/03/04 05:45:15;;;;;;;;;;;;;;;19.77;33.30;100847.28;4266404;27;19987;-57
2024/03/04 05:47:16;;;;;;;;;;;;;;;19.77;33.24;100849.94;4266368;27;20009;-57
2024/03/04 05:49:18;;;;;;;;;;;;;;;19.78;33.19;100845.44;4266151;27;20308;-56
2024/03/04 05:51:19;;;;;;;;;;;;;;;19.79;33.30;100850.69;4265886;27;19926;-56
2024/03/04 05:53:21;;;;;;;;;;;;;;;19.77;33.52;100847.28;4266103;27;19926;-57
2024/03/04 05:55:23;;;;;;;;;;;;;;;19.77;33.20;100849.94;4266361;27;19923;-57
2024/03/04 05:57:24;;;;;;;;;;;;;;;19.78;33.07;100853.44;4265996;27;19919;-57
2024/03/04 05:59:26;;;;;;;;;;;;;;;19.79;33.27;100864.03;4265953;27;19962;-57
2024/03/04 06:01:28;;;;;;;;;;;;;;;19.78;33.25;100858.78;4265867;27;19919;-57
2024/03/04 06:03:29;;;;;;;;;;;;;;;19.80;33.05;100859.53;4265882;27;19919;-58
2024/03/04 06:05:31;;;;;;;;;;;;;;;19.80;33.23;100860.38;4265841;27;19930;-57
2024/03/04 06:07:33;;;;;;;;;;;;;;;19.77;33.43;100841.09;4265649;27;20013;-57
2024/03/04 06:09:34;;;;;;;;;;;;;;;19.76;33.21;100856.22;4265770;27;19926;-57
2024/03/04 06:11:36;;;;;;;;;;;;;;;19.75;33.50;100848.34;4265784;27;20365;-58
2024/03/04 06:13:37;;;;;;;;;;;;;;;19.76;33.34;100860.72;4265976;27;19918;-57
2024/03/04 06:15:39;;;;;;;;;;;;;;;19.77;33.13;100857.09;4265639;27;19926;-57
2024/03/04 06:17:41;;;;;;;;;;;;;;;19.75;33.46;100862.53;4265753;27;19930;-57
2024/03/04 06:19:42;;;;;;;;;;;;;;;19.75;33.52;100867.03;4265824;27;19975;-56
2024/03/04 06:21:44;;;;;;;;;;;;;;;19.76;33.48;100858.91;4265416;27;19919;-56
2024/03/04 06:23:54;;;;;;;;;;;;;;;19.76;33.27;100858.91;4265667;27;19926;-58
2024/03/04 06:25:56;;;;;;;;;;;;;;;19.76;33.33;100861.56;4265707;27;19919;-57
2024/03/04 06:27:58;;;;;;;;;;;;;;;19.76;33.27;100864.25;4265640;27;20289;-57
2024/03/04 06:30:00;;;;;;;;;;;;;;;19.76;33.29;100863.41;4265595;27;19966;-55
2024/03/04 06:32:02;;;;;;;;;;;;;;;19.73;33.30;100866.28;4265430;27;19971;-56
2024/03/04 06:34:04;;;;;;;;;;;;;;;19.73;33.35;100871.59;4265472;27;19919;-57
2024/03/04 06:36:20;;;;;;;;;;;;;;;19.72;33.54;100870.78;4264776;27;19919;-57
2024/03/04 06:38:24;;;;;;;;;;;;;;;19.74;33.29;100878.66;4247210;27;20176;-58
2024/03/04 06:40:29;;;;;;;;;;;;;;;19.74;33.23;100868.81;4265393;27;19940;-58
2024/03/04 06:42:31;;;;;;;;;;;;;;;19.73;33.33;100874.28;4265206;27;20309;-58
2024/03/04 06:44:33;;;;;;;;;;;;;;;19.71;33.24;100869.06;4265411;27;19919;-58
2024/03/04 06:46:34;;;;;;;;;;;;;;;19.73;33.27;100864.47;4265283;27;20407;-57
2024/03/04 06:48:38;;;;;;;;;;;;;;;19.77;32.98;100870.44;4265285;27;20305;-58
2024/03/04 06:50:39;;;;;;;;;;;;;;;19.72;33.09;100868.09;4264993;27;20363;-58
2024/03/04 06:52:41;;;;;;;;;;;;;;;19.71;33.03;100860.19;4265442;27;19926;-57
2024/03/04 06:54:42;;;;;;;;;;;;;;;19.71;33.09;100865.53;4246691;27;19920;-58
2024/03/04 06:56:44;;;;;;;;;;;;;;;19.70;33.22;100872.69;4265027;27;20389;-57
2024/03/04 06:58:46;;;;;;;;;;;;;;;19.70;33.25;100872.69;4265647;27;19919;-57
2024/03/04 07:00:50;;;;;;;;;;;;;;;19.70;33.27;100878.03;4265217;27;19919;-57
2024/03/04 07:02:52;;;;;;;;;;;;;;;19.72;33.13;100875.25;4264834;27;19923;-58
2024/03/04 07:04:53;;;;;;;;;;;;;;;19.71;33.15;100879.75;4264733;27;19919;-57
2024/03/04 07:06:55;;;;;;;;;;;;;;;19.72;32.98;100885.91;4264889;27;20366;-58
2024/03/04 07:08:57;;;;;;;;;;;;;;;19.74;33.27;100884.00;4265073;27;20013;-58
2024/03/04 07:10:58;;;;;;;;;;;;;;;19.76;32.80;100882.91;4265177;27;19926;-57
2024/03/04 07:13:00;;;;;;;;;;;;;;;19.75;33.34;100888.38;4265013;27;19925;-58
2024/03/04 07:15:06;;;;;;;;;;;;;;;19.73;33.20;100895.63;4265018;27;19923;-58
2024/03/04 07:17:11;;;;;;;;;;;;;;;19.74;33.35;100897.34;4265063;27;20387;-55
2024/03/04 07:19:12;;;;;;;;;;;;;;;19.76;32.89;100890.09;4264573;27;19965;-56
2024/03/04 07:21:14;;;;;;;;;;;;;;;19.77;32.95;100892.63;4264471;27;19954;-57
2024/03/04 07:23:16;;;;;;;;;;;;;;;19.82;33.03;100899.44;4265052;27;20384;-58
2024/03/04 07:25:17;;;;;;;;;;;;;;;19.85;33.05;100905.44;4264987;27;19926;-58
2024/03/04 07:27:19;;;;;;;;;;;;;;;19.87;32.97;100906.19;4246711;27;20351;-57
2024/03/04 07:29:21;;;;;;;;;;;;;;;19.89;33.03;100898.06;4265070;27;19926;-58
2024/03/04 07:31:36;;;;;;;;;;;;;;;19.91;33.09;100906.84;4264787;27;19919;-58
2024/03/04 07:33:42;;;;;;;;;;;;;;;19.90;32.69;100900.66;4264629;27;19923;-58
2024/03/04 07:35:44;;;;;;;;;;;;;;;19.90;32.82;100905.13;4264902;27;19919;-58
2024/03/04 07:37:46;;;;;;;;;;;;;;;19.88;32.83;100907.91;4264895;27;19919;-58
2024/03/04 07:39:48;;;;;;;;;;;;;;;19.88;32.83;100901.69;4264831;27;20431;-58
2024/03/04 07:41:50;;;;;;;;;;;;;;;19.86;32.96;100901.81;4264817;27;20001;-58
2024/03/04 07:43:51;;;;;;;;;;;;;;;19.84;32.77;100903.75;4265227;27;20014;-58
2024/03/04 07:45:53;;;;;;;;;;;;;;;19.87;32.78;100900.03;4264871;27;20281;-58
2024/03/04 07:47:55;;;;;;;;;;;;;;;19.93;32.57;100903.09;4264502;27;19923;-58
2024/03/04 07:49:57;;;;;;;;;;;;;;;19.94;32.55;100901.28;4264883;27;19919;-56
2024/03/04 07:51:59;;;;;;;;;;;;;;;19.95;32.88;100902.97;4264602;27;19972;-57
2024/03/04 07:54:00;;;;;;;;;;;;;;;19.97;32.78;100900.22;4264531;27;20440;-57
2024/03/04 07:56:02;;;;;;;;;;;;;;;19.95;32.94;100909.19;4264561;27;19964;-57
2024/03/04 07:58:04;;;;;;;;;;;;;;;19.95;32.79;100914.53;4264608;27;19954;-57
2024/03/04 08:00:06;;;;;;;;;;;;;;;19.94;32.68;100918.16;4265030;27;20516;-58
2024/03/04 08:02:11;;;;;;;;;;;;;;;19.95;32.65;100925.19;4264220;27;19919;-59
2024/03/04 08:04:12;;;;;;;;;;;;;;;19.93;32.98;100927.13;4264923;27;19966;-59
2024/03/04 08:06:14;;;;;;;;;;;;;;;19.92;32.95;100925.41;4264392;27;20018;-57
2024/03/04 08:08:15;;;;;;;;;;;;;;;19.93;32.99;100923.59;4264929;27;19962;-57
2024/03/04 08:10:21;;;;;;;;;;;;;;;19.94;32.89;100930.66;4264601;27;19919;-57
2024/03/04 08:12:22;;;;;;;;;;;;;;;19.95;32.73;100927.00;4264566;27;19927;-57
2024/03/04 08:14:24;;;;;;;;;;;;;;;19.95;32.74;100927.88;4264688;27;19923;-57
2024/03/04 08:16:26;;;;;;;;;;;;;;;19.95;33.01;100930.53;4264238;27;19959;-57
2024/03/04 08:18:28;;;;;;;;;;;;;;;19.95;33.04;100927.00;4264766;27;19968;-57
2024/03/04 08:20:31;;;;;;;;;;;;;;;19.98;32.87;100933.91;4264545;27;20021;-57
2024/03/04 08:22:35;;;;;;;;;;;;;;;19.97;32.92;100929.56;4264404;27;19925;-57
2024/03/04 08:24:41;;;;;;;;;;;;;;;19.97;32.97;100925.06;4264581;27;20296;-57
2024/03/04 08:26:43;;;;;;;;;;;;;;;19.93;32.77;100918.25;4264330;27;20025;-57
2024/03/04 08:28:44;;;;;;;;;;;;;;;19.93;33.15;100920.94;4264481;27;19919;-57
2024/03/04 08:30:46;;;;;;;;;;;;;;;19.92;33.06;100925.41;4264572;27;19963;-57
2024/03/04 08:32:51;;;;;;;;;;;;;;;19.93;33.04;100924.44;4264658;27;19978;-57
2024/03/04 08:34:52;;;;;;;;;;;;;;;19.97;33.08;100924.22;4267651;27;19923;-57
2024/03/04 08:36:54;;;;;;;;;;;;;;;19.98;32.86;100931.25;4267356;27;19926;-57
2024/03/04 08:38:55;;;;;;;;;;;;;;;19.94;33.14;100931.50;4267494;27;20346;-56
2024/03/04 08:40:57;;;;;;;;;;;;;;;19.94;32.88;100926.16;4267621;27;20001;-57
2024/03/04 08:42:58;;;;;;;;;;;;;;;19.96;32.89;100923.38;4267379;27;20272;-58
2024/03/04 08:45:00;;;;;;;;;;;;;;;19.95;33.01;100914.53;4251144;27;19919;-57
2024/03/04 08:47:02;;;;;;;;;;;;;;;19.95;32.79;100919.84;4249829;27;20338;-57
2024/03/04 08:49:04;;;;;;;;;;;;;;;19.92;32.94;100924.56;4250268;27;19923;-57
2024/03/04 08:51:07;;;;;;;;;;;;;;;19.94;32.75;100926.16;4247345;27;19957;-58
2024/03/04 08:53:08;;;;;;;;;;;;;;;19.99;33.22;100917.81;4238970;27;19920;-58
2024/03/04 08:55:10;;;;;;;;;;;;;;;19.95;33.04;100921.66;4233081;27;19981;-58
2024/03/04 08:57:12;;;;;;;;;;;;;;;19.87;33.61;100919.56;4243233;27;20019;-57
2024/03/04 08:59:13;;;;;;;;;;;;;;;19.85;33.83;100917.97;4249640;27;19929;-56
2024/03/04 09:01:15;;;;;;;;;;;;;;;19.82;33.68;100907.44;4249302;27;19919;-56
2024/03/04 09:03:16;;;;;;;;;;;;;;;19.77;33.88;100907.81;4249554;27;20378;-57
2024/03/04 09:05:18;;;;;;;;;;;;;;;19.76;33.92;100911.44;4249602;27;19919;-57
2024/03/04 09:07:19;;;;;;;;;;;;;;;19.72;33.74;100912.59;4249621;27;20267;-56
2024/03/04 09:09:21;;;;;;;;;;;;;;;19.70;33.94;100909.22;4249649;27;19958;-57
2024/03/04 09:11:24;;;;;;;;;;;;;;;19.66;33.93;100913.91;4249501;27;19972;-57
2024/03/04 09:13:26;;;;;;;;;;;;;;;19.63;34.19;100914.94;4249511;27;19919;-57
2024/03/04 09:15:28;;;;;;;;;;;;;;;19.61;33.95;100914.22;4248732;27;20434;-57
2024/03/04 09:17:30;;;;;;;;;;;;;;;19.59;33.78;100916.13;4248576;27;20031;-57
2024/03/04 09:19:32;;;;;;;;;;;;;;;19.57;33.86;100909.22;4248748;27;20006;-58
2024/03/04 09:21:33;;;;;;;;;;;;;;;19.57;33.99;100911.88;4240910;27;19923;-57
2024/03/04 09:23:35;;;;;;;;;;;;;;;19.54;33.71;100923.63;4222660;28;19920;-57
2024/03/04 09:25:36;;;;;;;;;;;;;;;19.54;33.81;100920.09;4242765;27;19941;-57
2024/03/04 09:27:43;;;;;;;;;;;;;;;19.52;33.70;100919.34;4223544;27;19943;-57
2024/03/04 09:29:46;;;;;;;;;;;;;;;19.51;34.18;100918.50;4242761;27;20383;-56
2024/03/04 09:31:48;;;;;;;;;;;;;;;19.51;33.70;100925.66;4246346;27;19919;-57
2024/03/04 09:33:50;;;;;;;;;;;;;;;19.48;33.91;100916.06;4249246;27;19923;-57
2024/03/04 09:35:51;;;;;;;;;;;;;;;19.48;34.00;100916.06;4245905;27;20400;-57
2024/03/04 09:37:53;;;;;;;;;;;;;;;19.46;33.72;100920.63;4246096;27;19958;-57
2024/03/04 09:39:55;;;;;;;;;;;;;;;19.44;33.80;100915.41;4246590;27;19926;-58
2024/03/04 09:41:57;;;;;;;;;;;;;;;19.42;34.00;100916.47;4225903;28;19924;-57
2024/03/04 09:43:59;;;;;;;;;;;;;;;19.41;33.72;100915.63;4244346;27;20344;-57
2024/03/04 09:46:01;;;;;;;;;;;;;;;19.45;33.91;100924.25;4239762;27;19972;-54
2024/03/04 09:48:03;;;;;;;;;;;;;;;19.44;33.50;100920.75;4240127;27;19923;-57
2024/03/04 09:50:06;;;;;;;;;;;;;;;19.48;33.64;100916.06;4240094;27;20014;-57
2024/03/04 09:52:08;;;;;;;;;;;;;;;19.46;33.54;100918.81;4214202;28;19924;-57
2024/03/04 09:54:11;;;;;;;;;;;;;;;19.42;33.45;100917.31;4232045;28;20318;-59
2024/03/04 09:56:13;;;;;;;;;;;;;;;19.39;33.52;100909.53;4234774;27;19919;-56
2024/03/04 09:58:16;;;;;;;;;;;;;;;19.41;33.51;100912.94;4246343;27;19920;-57
2024/03/04 10:00:20;;;;;;;;;;;;;;;19.41;33.07;100912.94;4240807;27;20385;-57
2024/03/04 10:02:22;;;;;;;;;;;;;;;19.39;33.17;100911.34;4245819;27;20352;-56
2024/03/04 10:04:25;;;;;;;;;;;;;;;19.35;33.17;100905.38;4248102;27;19930;-56
2024/03/04 10:06:27;;;;;;;;;;;;;;;19.33;33.23;100906.44;4248602;27;20442;-58
2024/03/04 10:08:29;;;;;;;;;;;;;;;19.33;32.97;100906.44;4248758;27;20301;-57
2024/03/04 10:10:30;;;;;;;;;;;;;;;19.31;33.12;100906.56;4249090;27;20400;-57
2024/03/04 10:12:32;;;;;;;;;;;;;;;19.29;33.01;100909.31;4264295;27;19919;-56
2024/03/04 10:14:53;;;;;;;;;;;;;;;19.30;32.95;100905.69;4248637;27;20002;-57
2024/03/04 10:16:55;;;;;;;;;;;;;;;19.29;32.63;100905.81;4241757;27;19920;-57
2024/03/04 10:18:58;;;;;;;;;;;;;;;19.28;32.67;100904.97;4231626;28;19920;-57
2024/03/04 10:21:03;;;;;;;;;;;;;;;19.29;32.45;100905.81;4231490;28;19923;-58
2024/03/04 10:23:05;;;;;;;;;;;;;;;19.27;32.32;100905.91;4231584;28;19973;-58
2024/03/04 10:25:08;;;;;;;;;;;;;;;19.31;32.09;100906.56;4231761;27;19919;-58
2024/03/04 10:27:11;;;;;;;;;;;;;;;19.26;32.48;100900.66;4239385;27;19919;-58